sensor_id;sensor_type;location;lat;lon;timestamp;P1;durP1;ratioP1;P2;durP2;ratioP2
55813;SDS011;65494;42.818;0.404;2022-12-07T07:10:50;9.68;;;4.03;;
55813;SDS011;65494;42.818;0.404;2022-12-07T07:16:23;7.45;;;3.50;;
55813;SDS011;65494;42.818;0.404;2022-12-07T07:18:51;9.35;;;3.80;;
55813;SDS011;65494;42.818;0.404;2022-12-07T07:21:18;9.38;;;3.85;;
55813;SDS011;65494;42.818;0.404;2022-12-07T07:23:44;6.82;;;3.53;;
55813;SDS011;65494;42.818;0.404;2022-12-07T07:26:12;8.85;;;3.30;;
55813;SDS011;65494;42.818;0.404;2022-12-07T07:28:39;9.75;;;3.45;;
55813;SDS011;65494;42.818;0.404;2022-12-07T07:31:06;10.63;;;4.25;;
55813;SDS011;65494;42.818;0.404;2022-12-07T07:33:32;7.35;;;3.35;;
55813;SDS011;65494;42.818;0.404;2022-12-07T07:36:16;7.43;;;3.20;;
55813;SDS011;65494;42.818;0.404;2022-12-07T07:38:43;7.15;;;3.05;;
55813;SDS011;65494;42.818;0.404;2022-12-07T07:41:09;8.52;;;3.45;;
55813;SDS011;65494;42.818;0.404;2022-12-07T07:43:35;11.05;;;4.40;;
55813;SDS011;65494;42.818;0.404;2022-12-07T07:46:03;6.57;;;3.20;;
55813;SDS011;65494;42.818;0.404;2022-12-07T07:48:29;5.13;;;2.65;;
55813;SDS011;65494;42.818;0.404;2022-12-07T07:50:57;7.28;;;2.85;;
55813;SDS011;65494;42.818;0.404;2022-12-07T07:53:26;9.48;;;3.45;;
55813;SDS011;65494;42.818;0.404;2022-12-07T07:55:53;11.00;;;3.58;;
55813;SDS011;65494;42.818;0.404;2022-12-07T07:58:19;9.38;;;4.05;;
55813;SDS011;65494;42.818;0.404;2022-12-07T08:00:46;8.77;;;3.97;;
55813;SDS011;65494;42.818;0.404;2022-12-07T08:03:13;7.13;;;3.42;;
55813;SDS011;65494;42.818;0.404;2022-12-07T08:05:39;8.73;;;3.30;;
55813;SDS011;65494;42.818;0.404;2022-12-07T08:08:06;8.68;;;2.55;;
55813;SDS011;65494;42.818;0.404;2022-12-07T08:10:32;6.00;;;2.78;;
55813;SDS011;65494;42.818;0.404;2022-12-07T08:13:00;6.95;;;3.00;;
55813;SDS011;65494;42.818;0.404;2022-12-07T08:15:36;5.85;;;2.50;;
55813;SDS011;65494;42.818;0.404;2022-12-07T08:18:03;6.13;;;2.95;;
55813;SDS011;65494;42.818;0.404;2022-12-07T08:20:30;6.13;;;2.67;;
55813;SDS011;65494;42.818;0.404;2022-12-07T08:22:56;6.30;;;2.35;;
55813;SDS011;65494;42.818;0.404;2022-12-07T08:25:23;7.18;;;3.72;;
55813;SDS011;65494;42.818;0.404;2022-12-07T08:27:49;7.35;;;3.30;;
55813;SDS011;65494;42.818;0.404;2022-12-07T08:30:15;11.93;;;4.03;;
55813;SDS011;65494;42.818;0.404;2022-12-07T08:32:41;8.80;;;4.55;;
55813;SDS011;65494;42.818;0.404;2022-12-07T08:35:07;10.05;;;4.03;;
55813;SDS011;65494;42.818;0.404;2022-12-07T08:37:34;8.52;;;4.00;;
55813;SDS011;65494;42.818;0.404;2022-12-07T08:40:00;10.73;;;5.60;;
55813;SDS011;65494;42.818;0.404;2022-12-07T08:42:26;9.73;;;4.65;;
55813;SDS011;65494;42.818;0.404;2022-12-07T08:44:55;12.20;;;4.78;;
55813;SDS011;65494;42.818;0.404;2022-12-07T08:47:22;12.30;;;5.80;;
55813;SDS011;65494;42.818;0.404;2022-12-07T08:49:50;11.70;;;5.53;;
55813;SDS011;65494;42.818;0.404;2022-12-07T08:52:17;10.82;;;3.80;;
55813;SDS011;65494;42.818;0.404;2022-12-07T08:54:44;9.63;;;3.78;;
55813;SDS011;65494;42.818;0.404;2022-12-07T08:57:10;10.07;;;3.10;;
55813;SDS011;65494;42.818;0.404;2022-12-07T08:59:37;10.25;;;3.10;;
55813;SDS011;65494;42.818;0.404;2022-12-07T09:02:06;10.95;;;3.35;;
55813;SDS011;65494;42.818;0.404;2022-12-07T09:04:32;5.70;;;2.17;;
55813;SDS011;65494;42.818;0.404;2022-12-07T09:06:58;3.15;;;1.50;;
55813;SDS011;65494;42.818;0.404;2022-12-07T09:09:25;9.88;;;2.97;;
55813;SDS011;65494;42.818;0.404;2022-12-07T09:11:51;4.03;;;2.10;;
55813;SDS011;65494;42.818;0.404;2022-12-07T09:14:17;7.57;;;2.30;;
55813;SDS011;65494;42.818;0.404;2022-12-07T09:16:43;8.57;;;3.38;;
55813;SDS011;65494;42.818;0.404;2022-12-07T09:19:10;8.75;;;3.88;;
55813;SDS011;65494;42.818;0.404;2022-12-07T09:21:36;4.15;;;2.00;;
55813;SDS011;65494;42.818;0.404;2022-12-07T09:24:02;7.80;;;2.50;;
55813;SDS011;65494;42.818;0.404;2022-12-07T09:26:28;5.78;;;1.85;;
55813;SDS011;65494;42.818;0.404;2022-12-07T09:28:54;5.22;;;2.35;;
55813;SDS011;65494;42.818;0.404;2022-12-07T09:31:20;8.95;;;2.30;;
55813;SDS011;65494;42.818;0.404;2022-12-07T09:33:46;4.35;;;2.00;;
55813;SDS011;65494;42.818;0.404;2022-12-07T09:36:13;5.28;;;1.67;;
55813;SDS011;65494;42.818;0.404;2022-12-07T09:38:39;4.35;;;1.90;;
55813;SDS011;65494;42.818;0.404;2022-12-07T09:41:05;4.35;;;1.90;;
55813;SDS011;65494;42.818;0.404;2022-12-07T09:43:32;4.22;;;1.77;;
55813;SDS011;65494;42.818;0.404;2022-12-07T09:45:59;4.90;;;2.08;;
55813;SDS011;65494;42.818;0.404;2022-12-07T09:48:30;2.72;;;1.40;;
55813;SDS011;65494;42.818;0.404;2022-12-07T09:50:57;2.97;;;1.30;;
55813;SDS011;65494;42.818;0.404;2022-12-07T09:53:28;3.78;;;1.40;;
55813;SDS011;65494;42.818;0.404;2022-12-07T09:55:56;3.10;;;1.33;;
55813;SDS011;65494;42.818;0.404;2022-12-07T09:58:23;3.10;;;1.15;;
55813;SDS011;65494;42.818;0.404;2022-12-07T10:00:55;6.32;;;1.50;;
55813;SDS011;65494;42.818;0.404;2022-12-07T10:03:22;4.95;;;1.50;;
55813;SDS011;65494;42.818;0.404;2022-12-07T10:05:49;10.15;;;3.83;;
55813;SDS011;65494;42.818;0.404;2022-12-07T10:08:16;12.38;;;4.20;;
55813;SDS011;65494;42.818;0.404;2022-12-07T10:10:43;15.32;;;6.97;;
55813;SDS011;65494;42.818;0.404;2022-12-07T10:13:10;4.70;;;1.45;;
55813;SDS011;65494;42.818;0.404;2022-12-07T10:15:41;8.55;;;3.17;;
55813;SDS011;65494;42.818;0.404;2022-12-07T10:20:44;2.40;;;1.00;;
55813;SDS011;65494;42.818;0.404;2022-12-07T10:23:16;2.75;;;1.30;;
55813;SDS011;65494;42.818;0.404;2022-12-07T10:25:43;6.45;;;1.80;;
55813;SDS011;65494;42.818;0.404;2022-12-07T10:28:17;4.57;;;1.75;;
55813;SDS011;65494;42.818;0.404;2022-12-07T10:30:59;7.22;;;3.00;;
55813;SDS011;65494;42.818;0.404;2022-12-07T10:33:31;6.70;;;2.90;;
55813;SDS011;65494;42.818;0.404;2022-12-07T10:35:58;4.45;;;2.00;;
55813;SDS011;65494;42.818;0.404;2022-12-07T10:38:25;5.30;;;1.73;;
55813;SDS011;65494;42.818;0.404;2022-12-07T10:41:05;5.28;;;2.00;;
55813;SDS011;65494;42.818;0.404;2022-12-07T10:43:31;3.83;;;2.03;;
55813;SDS011;65494;42.818;0.404;2022-12-07T10:46:13;2.83;;;1.60;;
55813;SDS011;65494;42.818;0.404;2022-12-07T10:48:58;4.30;;;1.90;;
55813;SDS011;65494;42.818;0.404;2022-12-07T10:56:29;3.97;;;1.98;;
55813;SDS011;65494;42.818;0.404;2022-12-07T11:01:46;2.03;;;1.13;;
55813;SDS011;65494;42.818;0.404;2022-12-07T11:12:13;2.38;;;0.73;;
55813;SDS011;65494;42.818;0.404;2022-12-07T11:17:20;1.75;;;0.70;;
55813;SDS011;65494;42.818;0.404;2022-12-07T11:22:23;1.30;;;0.70;;
55813;SDS011;65494;42.818;0.404;2022-12-07T11:27:41;1.02;;;0.63;;
55813;SDS011;65494;42.818;0.404;2022-12-07T11:30:13;1.95;;;1.08;;
55813;SDS011;65494;42.818;0.404;2022-12-07T11:32:44;2.05;;;1.00;;
55813;SDS011;65494;42.818;0.404;2022-12-07T11:35:24;0.70;;;0.65;;
55813;SDS011;65494;42.818;0.404;2022-12-07T11:37:57;2.78;;;1.33;;
55813;SDS011;65494;42.818;0.404;2022-12-07T11:40:34;3.92;;;1.60;;
55813;SDS011;65494;42.818;0.404;2022-12-07T11:43:02;7.85;;;3.40;;
55813;SDS011;65494;42.818;0.404;2022-12-07T11:45:33;4.03;;;1.10;;
55813;SDS011;65494;42.818;0.404;2022-12-07T11:48:00;3.65;;;1.33;;
55813;SDS011;65494;42.818;0.404;2022-12-07T11:50:29;0.73;;;0.50;;
55813;SDS011;65494;42.818;0.404;2022-12-07T11:52:58;7.10;;;3.13;;
55813;SDS011;65494;42.818;0.404;2022-12-07T11:55:45;9.10;;;3.83;;
55813;SDS011;65494;42.818;0.404;2022-12-07T12:00:39;2.03;;;0.70;;
55813;SDS011;65494;42.818;0.404;2022-12-07T12:03:10;12.18;;;5.72;;
55813;SDS011;65494;42.818;0.404;2022-12-07T12:05:38;6.05;;;2.75;;
55813;SDS011;65494;42.818;0.404;2022-12-07T12:10:35;1.65;;;0.70;;
55813;SDS011;65494;42.818;0.404;2022-12-07T12:15:42;0.82;;;0.50;;
55813;SDS011;65494;42.818;0.404;2022-12-07T12:20:47;1.80;;;0.50;;
55813;SDS011;65494;42.818;0.404;2022-12-07T12:25:46;0.40;;;0.40;;
55813;SDS011;65494;42.818;0.404;2022-12-07T12:28:23;1.08;;;0.52;;
55813;SDS011;65494;42.818;0.404;2022-12-07T12:33:35;0.68;;;0.50;;
55813;SDS011;65494;42.818;0.404;2022-12-07T12:41:51;1.65;;;1.00;;
55813;SDS011;65494;42.818;0.404;2022-12-07T12:43:56;3.00;;;1.70;;
55813;SDS011;65494;42.818;0.404;2022-12-07T12:49:40;2.67;;;1.67;;
55813;SDS011;65494;42.818;0.404;2022-12-07T12:51:41;4.40;;;2.00;;
55813;SDS011;65494;42.818;0.404;2022-12-07T12:54:18;4.22;;;2.67;;
55813;SDS011;65494;42.818;0.404;2022-12-07T13:01:53;1.42;;;0.70;;
55813;SDS011;65494;42.818;0.404;2022-12-07T13:04:31;0.95;;;0.80;;
55813;SDS011;65494;42.818;0.404;2022-12-07T13:07:00;1.33;;;0.70;;
55813;SDS011;65494;42.818;0.404;2022-12-07T13:09:29;3.45;;;0.82;;
55813;SDS011;65494;42.818;0.404;2022-12-07T13:12:04;2.20;;;1.10;;
55813;SDS011;65494;42.818;0.404;2022-12-07T13:14:54;1.10;;;0.70;;
55813;SDS011;65494;42.818;0.404;2022-12-07T13:20:03;0.65;;;0.63;;
55813;SDS011;65494;42.818;0.404;2022-12-07T13:24:59;2.10;;;0.70;;
55813;SDS011;65494;42.818;0.404;2022-12-07T13:27:28;2.55;;;1.25;;
55813;SDS011;65494;42.818;0.404;2022-12-07T13:29:56;6.15;;;2.55;;
55813;SDS011;65494;42.818;0.404;2022-12-07T13:32:27;19.02;;;7.20;;
55813;SDS011;65494;42.818;0.404;2022-12-07T13:34:53;1.55;;;1.10;;
55813;SDS011;65494;42.818;0.404;2022-12-07T13:42:25;1.10;;;0.70;;
55813;SDS011;65494;42.818;0.404;2022-12-07T13:44:55;1.52;;;0.88;;
55813;SDS011;65494;42.818;0.404;2022-12-07T13:47:35;3.88;;;1.48;;
55813;SDS011;65494;42.818;0.404;2022-12-07T13:50:25;4.25;;;1.67;;
55813;SDS011;65494;42.818;0.404;2022-12-07T13:52:54;7.80;;;2.83;;
55813;SDS011;65494;42.818;0.404;2022-12-07T13:55:20;2.53;;;1.33;;
55813;SDS011;65494;42.818;0.404;2022-12-07T13:57:50;7.35;;;3.05;;
55813;SDS011;65494;42.818;0.404;2022-12-07T14:00:19;12.05;;;4.53;;
55813;SDS011;65494;42.818;0.404;2022-12-07T14:05:37;1.88;;;1.00;;
55813;SDS011;65494;42.818;0.404;2022-12-07T14:08:04;2.83;;;1.65;;
55813;SDS011;65494;42.818;0.404;2022-12-07T14:10:32;2.38;;;1.30;;
55813;SDS011;65494;42.818;0.404;2022-12-07T14:12:59;1.65;;;0.98;;
55813;SDS011;65494;42.818;0.404;2022-12-07T14:15:28;1.80;;;1.02;;
55813;SDS011;65494;42.818;0.404;2022-12-07T14:18:03;3.45;;;1.98;;
55813;SDS011;65494;42.818;0.404;2022-12-07T14:20:31;5.28;;;1.63;;
55813;SDS011;65494;42.818;0.404;2022-12-07T14:22:57;6.85;;;3.38;;
55813;SDS011;65494;42.818;0.404;2022-12-07T14:25:26;3.53;;;1.88;;
55813;SDS011;65494;42.818;0.404;2022-12-07T14:27:59;5.97;;;2.70;;
55813;SDS011;65494;42.818;0.404;2022-12-07T14:30:29;4.00;;;1.35;;
55813;SDS011;65494;42.818;0.404;2022-12-07T14:33:01;2.15;;;1.23;;
55813;SDS011;65494;42.818;0.404;2022-12-07T14:35:30;3.38;;;1.70;;
55813;SDS011;65494;42.818;0.404;2022-12-07T14:37:57;2.67;;;1.40;;
55813;SDS011;65494;42.818;0.404;2022-12-07T14:40:26;5.93;;;1.75;;
55813;SDS011;65494;42.818;0.404;2022-12-07T14:43:00;3.33;;;1.90;;
55813;SDS011;65494;42.818;0.404;2022-12-07T14:45:31;2.88;;;1.20;;
55813;SDS011;65494;42.818;0.404;2022-12-07T14:48:00;2.67;;;1.52;;
55813;SDS011;65494;42.818;0.404;2022-12-07T14:50:37;4.03;;;1.50;;
55813;SDS011;65494;42.818;0.404;2022-12-07T14:53:12;4.43;;;1.80;;
55813;SDS011;65494;42.818;0.404;2022-12-07T14:56:06;3.10;;;1.45;;
55813;SDS011;65494;42.818;0.404;2022-12-07T14:58:59;1.92;;;1.10;;
55813;SDS011;65494;42.818;0.404;2022-12-07T15:01:25;4.38;;;1.80;;
55813;SDS011;65494;42.818;0.404;2022-12-07T15:03:51;2.97;;;1.60;;
55813;SDS011;65494;42.818;0.404;2022-12-07T15:06:56;6.43;;;3.30;;
55813;SDS011;65494;42.818;0.404;2022-12-07T15:09:22;7.80;;;2.95;;
55813;SDS011;65494;42.818;0.404;2022-12-07T15:12:00;5.20;;;2.40;;
55813;SDS011;65494;42.818;0.404;2022-12-07T15:14:51;2.75;;;1.45;;
55813;SDS011;65494;42.818;0.404;2022-12-07T15:17:44;2.83;;;1.33;;
55813;SDS011;65494;42.818;0.404;2022-12-07T15:20:31;3.28;;;1.60;;
55813;SDS011;65494;42.818;0.404;2022-12-07T15:23:07;7.05;;;2.00;;
55813;SDS011;65494;42.818;0.404;2022-12-07T15:25:36;6.43;;;1.63;;
55813;SDS011;65494;42.818;0.404;2022-12-07T15:28:04;7.38;;;2.47;;
55813;SDS011;65494;42.818;0.404;2022-12-07T15:30:31;3.80;;;1.67;;
55813;SDS011;65494;42.818;0.404;2022-12-07T15:33:27;4.63;;;2.53;;
55813;SDS011;65494;42.818;0.404;2022-12-07T15:35:58;4.18;;;1.90;;
55813;SDS011;65494;42.818;0.404;2022-12-07T15:38:49;5.13;;;2.63;;
55813;SDS011;65494;42.818;0.404;2022-12-07T15:41:30;3.15;;;1.65;;
55813;SDS011;65494;42.818;0.404;2022-12-07T15:44:06;2.90;;;1.67;;
55813;SDS011;65494;42.818;0.404;2022-12-07T15:47:11;3.72;;;1.70;;
55813;SDS011;65494;42.818;0.404;2022-12-07T15:49:39;3.30;;;1.73;;
55813;SDS011;65494;42.818;0.404;2022-12-07T15:52:05;4.68;;;1.42;;
55813;SDS011;65494;42.818;0.404;2022-12-07T15:54:31;4.65;;;1.80;;
55813;SDS011;65494;42.818;0.404;2022-12-07T15:57:03;3.35;;;1.40;;
55813;SDS011;65494;42.818;0.404;2022-12-07T15:59:31;4.67;;;2.17;;
55813;SDS011;65494;42.818;0.404;2022-12-07T16:01:58;4.15;;;1.80;;
55813;SDS011;65494;42.818;0.404;2022-12-07T16:04:24;4.43;;;1.45;;
55813;SDS011;65494;42.818;0.404;2022-12-07T16:06:50;4.55;;;1.80;;
55813;SDS011;65494;42.818;0.404;2022-12-07T16:09:16;5.03;;;2.00;;
55813;SDS011;65494;42.818;0.404;2022-12-07T16:11:42;4.25;;;1.60;;
55813;SDS011;65494;42.818;0.404;2022-12-07T16:14:09;5.93;;;2.20;;
55813;SDS011;65494;42.818;0.404;2022-12-07T16:16:35;16.38;;;5.45;;
55813;SDS011;65494;42.818;0.404;2022-12-07T16:19:01;6.97;;;3.03;;
55813;SDS011;65494;42.818;0.404;2022-12-07T16:21:28;5.93;;;2.30;;
55813;SDS011;65494;42.818;0.404;2022-12-07T16:23:54;6.78;;;2.78;;
55813;SDS011;65494;42.818;0.404;2022-12-07T16:26:23;5.57;;;2.38;;
55813;SDS011;65494;42.818;0.404;2022-12-07T16:28:50;4.35;;;1.90;;
55813;SDS011;65494;42.818;0.404;2022-12-07T16:31:17;4.28;;;2.13;;
55813;SDS011;65494;42.818;0.404;2022-12-07T16:33:44;5.03;;;1.88;;
55813;SDS011;65494;42.818;0.404;2022-12-07T16:36:11;3.38;;;1.55;;
55813;SDS011;65494;42.818;0.404;2022-12-07T16:38:38;5.70;;;2.03;;
55813;SDS011;65494;42.818;0.404;2022-12-07T16:41:05;5.18;;;1.88;;
55813;SDS011;65494;42.818;0.404;2022-12-07T16:44:16;3.75;;;1.80;;
55813;SDS011;65494;42.818;0.404;2022-12-07T16:46:44;3.53;;;1.90;;
55813;SDS011;65494;42.818;0.404;2022-12-07T16:49:34;6.80;;;2.90;;
55813;SDS011;65494;42.818;0.404;2022-12-07T16:52:36;3.38;;;1.70;;
55813;SDS011;65494;42.818;0.404;2022-12-07T16:55:02;26.00;;;11.32;;
55813;SDS011;65494;42.818;0.404;2022-12-07T16:57:29;8.05;;;3.35;;
55813;SDS011;65494;42.818;0.404;2022-12-07T16:59:59;9.20;;;3.42;;
55813;SDS011;65494;42.818;0.404;2022-12-07T18:42:08;2.92;;;1.85;;
55813;SDS011;65494;42.818;0.404;2022-12-07T18:44:37;3.90;;;1.73;;
55813;SDS011;65494;42.818;0.404;2022-12-07T18:47:22;9.52;;;4.93;;
55813;SDS011;65494;42.818;0.404;2022-12-07T18:49:51;12.75;;;4.10;;
55813;SDS011;65494;42.818;0.404;2022-12-07T18:52:17;27.92;;;14.35;;
55813;SDS011;65494;42.818;0.404;2022-12-07T18:55:06;9.68;;;4.93;;
55813;SDS011;65494;42.818;0.404;2022-12-07T19:06:21;8.98;;;3.97;;
55813;SDS011;65494;42.818;0.404;2022-12-07T19:09:03;5.50;;;2.85;;
55813;SDS011;65494;42.818;0.404;2022-12-07T19:38:18;10.43;;;4.30;;
55813;SDS011;65494;42.818;0.404;2022-12-07T19:41:06;11.18;;;4.28;;
55813;SDS011;65494;42.818;0.404;2022-12-07T19:44:08;11.48;;;5.70;;
55813;SDS011;65494;42.818;0.404;2022-12-07T19:46:43;11.85;;;6.00;;
55813;SDS011;65494;42.818;0.404;2022-12-07T19:49:19;11.32;;;5.32;;
55813;SDS011;65494;42.818;0.404;2022-12-07T19:51:55;10.40;;;5.50;;
55813;SDS011;65494;42.818;0.404;2022-12-07T19:54:23;10.90;;;5.70;;
55813;SDS011;65494;42.818;0.404;2022-12-07T19:56:50;13.07;;;6.57;;
55813;SDS011;65494;42.818;0.404;2022-12-07T19:59:24;12.90;;;6.85;;
55813;SDS011;65494;42.818;0.404;2022-12-07T20:02:15;12.55;;;6.30;;
55813;SDS011;65494;42.818;0.404;2022-12-07T20:04:46;15.43;;;5.80;;
55813;SDS011;65494;42.818;0.404;2022-12-07T20:07:14;19.50;;;10.00;;
55813;SDS011;65494;42.818;0.404;2022-12-07T20:22:17;27.25;;;12.25;;
55813;SDS011;65494;42.818;0.404;2022-12-07T20:27:47;28.55;;;13.65;;
55813;SDS011;65494;42.818;0.404;2022-12-07T20:30:15;25.85;;;12.93;;
55813;SDS011;65494;42.818;0.404;2022-12-07T20:39:16;19.48;;;7.72;;
55813;SDS011;65494;42.818;0.404;2022-12-07T20:44:53;24.80;;;15.32;;
55813;SDS011;65494;42.818;0.404;2022-12-07T20:47:19;29.25;;;12.30;;
55813;SDS011;65494;42.818;0.404;2022-12-07T20:49:45;28.73;;;12.05;;
55813;SDS011;65494;42.818;0.404;2022-12-07T20:52:12;32.13;;;13.57;;
55813;SDS011;65494;42.818;0.404;2022-12-07T20:54:38;5.97;;;3.15;;
55813;SDS011;65494;42.818;0.404;2022-12-07T20:57:05;19.27;;;8.32;;
55813;SDS011;65494;42.818;0.404;2022-12-07T20:59:34;13.30;;;5.03;;
55813;SDS011;65494;42.818;0.404;2022-12-07T21:02:04;10.02;;;4.40;;
55813;SDS011;65494;42.818;0.404;2022-12-07T21:04:33;9.00;;;4.10;;
55813;SDS011;65494;42.818;0.404;2022-12-07T21:06:59;8.23;;;4.30;;
55813;SDS011;65494;42.818;0.404;2022-12-07T21:09:25;9.60;;;4.00;;
55813;SDS011;65494;42.818;0.404;2022-12-07T21:11:52;12.80;;;6.63;;
55813;SDS011;65494;42.818;0.404;2022-12-07T21:14:21;12.60;;;5.80;;
55813;SDS011;65494;42.818;0.404;2022-12-07T21:16:53;8.55;;;4.53;;
55813;SDS011;65494;42.818;0.404;2022-12-07T21:19:32;12.15;;;4.93;;
55813;SDS011;65494;42.818;0.404;2022-12-07T21:21:58;16.98;;;7.78;;
55813;SDS011;65494;42.818;0.404;2022-12-07T21:24:24;13.75;;;6.80;;
55813;SDS011;65494;42.818;0.404;2022-12-07T21:26:50;22.17;;;10.00;;
55813;SDS011;65494;42.818;0.404;2022-12-07T21:29:17;14.75;;;7.10;;
55813;SDS011;65494;42.818;0.404;2022-12-07T21:31:43;10.02;;;5.10;;
55813;SDS011;65494;42.818;0.404;2022-12-07T21:34:09;9.10;;;3.78;;
55813;SDS011;65494;42.818;0.404;2022-12-07T21:36:36;58.80;;;18.73;;
55813;SDS011;65494;42.818;0.404;2022-12-07T21:39:02;15.82;;;6.97;;
55813;SDS011;65494;42.818;0.404;2022-12-07T21:41:30;7.72;;;3.72;;
55813;SDS011;65494;42.818;0.404;2022-12-07T21:43:57;26.38;;;11.80;;
55813;SDS011;65494;42.818;0.404;2022-12-07T21:46:24;18.58;;;8.27;;
55813;SDS011;65494;42.818;0.404;2022-12-07T21:48:52;19.23;;;8.63;;
55813;SDS011;65494;42.818;0.404;2022-12-07T21:51:18;17.05;;;8.45;;
55813;SDS011;65494;42.818;0.404;2022-12-07T21:53:45;20.58;;;8.38;;
55813;SDS011;65494;42.818;0.404;2022-12-07T21:56:25;16.95;;;8.00;;
55813;SDS011;65494;42.818;0.404;2022-12-07T21:58:53;16.10;;;8.52;;
55813;SDS011;65494;42.818;0.404;2022-12-07T22:01:23;18.83;;;8.13;;
55813;SDS011;65494;42.818;0.404;2022-12-07T22:03:50;17.67;;;8.40;;
55813;SDS011;65494;42.818;0.404;2022-12-07T22:06:24;17.42;;;8.57;;
55813;SDS011;65494;42.818;0.404;2022-12-07T22:08:51;18.67;;;8.85;;
55813;SDS011;65494;42.818;0.404;2022-12-07T22:11:18;19.70;;;8.43;;
55813;SDS011;65494;42.818;0.404;2022-12-07T22:13:45;13.55;;;5.93;;
55813;SDS011;65494;42.818;0.404;2022-12-07T22:18:55;23.75;;;10.02;;
55813;SDS011;65494;42.818;0.404;2022-12-07T22:21:22;20.50;;;8.65;;
55813;SDS011;65494;42.818;0.404;2022-12-07T22:23:52;26.77;;;10.18;;
55813;SDS011;65494;42.818;0.404;2022-12-07T22:26:18;28.77;;;11.00;;
55813;SDS011;65494;42.818;0.404;2022-12-07T22:28:45;29.52;;;10.75;;
55813;SDS011;65494;42.818;0.404;2022-12-07T22:31:12;201.48;;;42.85;;
55813;SDS011;65494;42.818;0.404;2022-12-07T22:33:39;114.10;;;27.67;;
55813;SDS011;65494;42.818;0.404;2022-12-07T22:36:05;40.60;;;14.30;;
55813;SDS011;65494;42.818;0.404;2022-12-07T22:38:32;41.28;;;14.30;;
55813;SDS011;65494;42.818;0.404;2022-12-07T22:40:59;36.35;;;16.27;;
55813;SDS011;65494;42.818;0.404;2022-12-07T22:43:25;22.27;;;9.13;;
55813;SDS011;65494;42.818;0.404;2022-12-07T22:45:54;12.52;;;4.32;;
55813;SDS011;65494;42.818;0.404;2022-12-07T22:48:21;28.60;;;9.77;;
55813;SDS011;65494;42.818;0.404;2022-12-07T22:50:47;20.88;;;7.43;;
55813;SDS011;65494;42.818;0.404;2022-12-07T22:53:17;17.25;;;7.40;;
55813;SDS011;65494;42.818;0.404;2022-12-07T22:55:43;16.15;;;6.93;;
55813;SDS011;65494;42.818;0.404;2022-12-07T22:58:09;17.88;;;6.43;;
55813;SDS011;65494;42.818;0.404;2022-12-07T23:00:35;17.88;;;6.32;;
55813;SDS011;65494;42.818;0.404;2022-12-07T23:03:03;16.15;;;6.03;;
55813;SDS011;65494;42.818;0.404;2022-12-07T23:05:29;12.75;;;5.80;;
55813;SDS011;65494;42.818;0.404;2022-12-07T23:07:57;13.77;;;5.00;;
55813;SDS011;65494;42.818;0.404;2022-12-07T23:10:23;15.65;;;5.30;;
55813;SDS011;65494;42.818;0.404;2022-12-07T23:12:50;13.68;;;5.05;;
55813;SDS011;65494;42.818;0.404;2022-12-07T23:15:35;16.33;;;5.80;;
55813;SDS011;65494;42.818;0.404;2022-12-07T23:18:03;16.40;;;6.20;;
55813;SDS011;65494;42.818;0.404;2022-12-07T23:20:29;13.82;;;6.03;;
55813;SDS011;65494;42.818;0.404;2022-12-07T23:22:55;17.38;;;6.60;;
55813;SDS011;65494;42.818;0.404;2022-12-07T23:25:23;12.23;;;5.05;;
55813;SDS011;65494;42.818;0.404;2022-12-07T23:27:49;15.30;;;5.10;;
55813;SDS011;65494;42.818;0.404;2022-12-07T23:33:04;15.00;;;5.47;;
55813;SDS011;65494;42.818;0.404;2022-12-07T23:35:50;9.60;;;4.53;;
55813;SDS011;65494;42.818;0.404;2022-12-07T23:38:19;12.20;;;4.47;;
55813;SDS011;65494;42.818;0.404;2022-12-07T23:43:59;12.70;;;4.55;;
55813;SDS011;65494;42.818;0.404;2022-12-07T23:46:44;14.40;;;5.90;;
55813;SDS011;65494;42.818;0.404;2022-12-07T23:49:10;14.80;;;5.38;;
55813;SDS011;65494;42.818;0.404;2022-12-07T23:51:58;12.27;;;5.35;;
55813;SDS011;65494;42.818;0.404;2022-12-07T23:54:44;14.38;;;4.90;;
